sensor_id;sensor_type;location;lat;lon;timestamp;temperature;humidity
20182;DHT22;10250;50.756;6.172;2023-11-19T00:01:26;11.10;99.90
20182;DHT22;10250;50.756;6.172;2023-11-19T00:03:27;11.10;99.90
20182;DHT22;10250;50.756;6.172;2023-11-19T00:05:28;11.10;99.90
20182;DHT22;10250;50.756;6.172;2023-11-19T00:07:29;11.20;99.90
20182;DHT22;10250;50.756;6.172;2023-11-19T00:09:29;11.20;99.90
20182;DHT22;10250;50.756;6.172;2023-11-19T00:11:30;11.20;99.90
20182;DHT22;10250;50.756;6.172;2023-11-19T00:13:30;11.20;99.90
20182;DHT22;10250;50.756;6.172;2023-11-19T00:15:31;11.20;99.90
20182;DHT22;10250;50.756;6.172;2023-11-19T00:17:32;11.20;99.90
20182;DHT22;10250;50.756;6.172;2023-11-19T00:19:32;11.20;99.90
20182;DHT22;10250;50.756;6.172;2023-11-19T00:21:33;11.20;99.90
20182;DHT22;10250;50.756;6.172;2023-11-19T00:23:34;11.20;99.90
20182;DHT22;10250;50.756;6.172;2023-11-19T00:25:34;11.20;99.90
20182;DHT22;10250;50.756;6.172;2023-11-19T00:27:35;11.20;99.90
20182;DHT22;10250;50.756;6.172;2023-11-19T00:29:36;11.30;99.90
20182;DHT22;10250;50.756;6.172;2023-11-19T00:31:36;11.20;99.90
20182;DHT22;10250;50.756;6.172;2023-11-19T00:33:37;11.30;99.90
20182;DHT22;10250;50.756;6.172;2023-11-19T00:35:38;11.30;99.90
20182;DHT22;10250;50.756;6.172;2023-11-19T00:37:38;11.20;99.90
20182;DHT22;10250;50.756;6.172;2023-11-19T00:39:40;11.30;99.90
20182;DHT22;10250;50.756;6.172;2023-11-19T00:41:40;11.30;99.90
20182;DHT22;10250;50.756;6.172;2023-11-19T00:43:41;11.40;99.90
20182;DHT22;10250;50.756;6.172;2023-11-19T00:45:42;11.40;99.90
20182;DHT22;10250;50.756;6.172;2023-11-19T00:47:43;11.40;99.90
20182;DHT22;10250;50.756;6.172;2023-11-19T00:49:44;11.40;99.90
20182;DHT22;10250;50.756;6.172;2023-11-19T00:51:44;11.40;99.90
20182;DHT22;10250;50.756;6.172;2023-11-19T00:53:45;11.40;99.90
20182;DHT22;10250;50.756;6.172;2023-11-19T00:55:46;11.40;99.90
20182;DHT22;10250;50.756;6.172;2023-11-19T00:57:46;11.40;99.90
20182;DHT22;10250;50.756;6.172;2023-11-19T00:59:47;11.50;99.90
20182;DHT22;10250;50.756;6.172;2023-11-19T01:01:48;11.40;99.90
20182;DHT22;10250;50.756;6.172;2023-11-19T01:03:48;11.50;99.90
20182;DHT22;10250;50.756;6.172;2023-11-19T01:05:49;11.50;99.90
20182;DHT22;10250;50.756;6.172;2023-11-19T01:07:52;11.50;99.90
20182;DHT22;10250;50.756;6.172;2023-11-19T01:09:54;11.50;99.90
20182;DHT22;10250;50.756;6.172;2023-11-19T01:11:54;11.50;99.90
20182;DHT22;10250;50.756;6.172;2023-11-19T01:13:55;11.50;99.90
20182;DHT22;10250;50.756;6.172;2023-11-19T01:15:56;11.50;99.90
20182;DHT22;10250;50.756;6.172;2023-11-19T01:17:56;11.50;99.90
20182;DHT22;10250;50.756;6.172;2023-11-19T01:19:57;11.50;99.90
20182;DHT22;10250;50.756;6.172;2023-11-19T01:21:58;11.50;99.90
20182;DHT22;10250;50.756;6.172;2023-11-19T01:23:58;11.50;99.90
20182;DHT22;10250;50.756;6.172;2023-11-19T01:26:04;11.50;99.90
20182;DHT22;10250;50.756;6.172;2023-11-19T01:28:05;11.50;99.90
20182;DHT22;10250;50.756;6.172;2023-11-19T01:30:06;11.50;99.90
20182;DHT22;10250;50.756;6.172;2023-11-19T01:32:09;11.50;99.90
20182;DHT22;10250;50.756;6.172;2023-11-19T01:34:10;11.50;99.90
20182;DHT22;10250;50.756;6.172;2023-11-19T01:36:15;11.50;99.90
20182;DHT22;10250;50.756;6.172;2023-11-19T01:38:15;11.50;99.90
20182;DHT22;10250;50.756;6.172;2023-11-19T01:40:20;11.50;99.90
20182;DHT22;10250;50.756;6.172;2023-11-19T01:42:21;11.50;99.90
20182;DHT22;10250;50.756;6.172;2023-11-19T01:44:21;11.50;99.90
20182;DHT22;10250;50.756;6.172;2023-11-19T01:46:22;11.50;99.90
20182;DHT22;10250;50.756;6.172;2023-11-19T01:48:23;11.50;99.90
20182;DHT22;10250;50.756;6.172;2023-11-19T01:50:24;11.50;99.90
20182;DHT22;10250;50.756;6.172;2023-11-19T01:52:27;11.50;99.90
20182;DHT22;10250;50.756;6.172;2023-11-19T01:54:29;11.50;99.90
20182;DHT22;10250;50.756;6.172;2023-11-19T01:56:30;11.50;99.90
20182;DHT22;10250;50.756;6.172;2023-11-19T01:58:32;11.50;99.90
20182;DHT22;10250;50.756;6.172;2023-11-19T02:00:33;11.50;99.90
20182;DHT22;10250;50.756;6.172;2023-11-19T02:02:33;11.50;99.90
20182;DHT22;10250;50.756;6.172;2023-11-19T02:04:34;11.50;99.90
20182;DHT22;10250;50.756;6.172;2023-11-19T02:06:38;11.50;99.90
20182;DHT22;10250;50.756;6.172;2023-11-19T02:08:41;11.50;99.90
20182;DHT22;10250;50.756;6.172;2023-11-19T02:10:42;11.50;99.90
20182;DHT22;10250;50.756;6.172;2023-11-19T02:12:43;11.50;99.90
20182;DHT22;10250;50.756;6.172;2023-11-19T02:14:44;11.40;99.90
20182;DHT22;10250;50.756;6.172;2023-11-19T02:16:44;11.40;99.90
20182;DHT22;10250;50.756;6.172;2023-11-19T02:18:45;11.40;99.90
20182;DHT22;10250;50.756;6.172;2023-11-19T02:20:46;11.40;99.90
20182;DHT22;10250;50.756;6.172;2023-11-19T02:22:47;11.40;99.90
20182;DHT22;10250;50.756;6.172;2023-11-19T02:24:51;11.40;99.90
20182;DHT22;10250;50.756;6.172;2023-11-19T02:27:00;11.40;99.90
20182;DHT22;10250;50.756;6.172;2023-11-19T02:29:02;11.50;99.90
20182;DHT22;10250;50.756;6.172;2023-11-19T02:31:03;11.40;99.90
20182;DHT22;10250;50.756;6.172;2023-11-19T02:33:06;11.40;99.90
20182;DHT22;10250;50.756;6.172;2023-11-19T02:35:07;11.50;99.90
20182;DHT22;10250;50.756;6.172;2023-11-19T02:37:11;11.40;99.90
20182;DHT22;10250;50.756;6.172;2023-11-19T02:39:12;11.40;99.90
20182;DHT22;10250;50.756;6.172;2023-11-19T02:41:14;11.40;99.90
20182;DHT22;10250;50.756;6.172;2023-11-19T02:43:15;11.40;99.90
20182;DHT22;10250;50.756;6.172;2023-11-19T02:45:15;11.40;99.90
20182;DHT22;10250;50.756;6.172;2023-11-19T02:47:16;11.40;99.90
20182;DHT22;10250;50.756;6.172;2023-11-19T02:49:17;11.40;99.90
20182;DHT22;10250;50.756;6.172;2023-11-19T02:51:18;11.30;99.90
20182;DHT22;10250;50.756;6.172;2023-11-19T02:53:19;11.30;99.90
20182;DHT22;10250;50.756;6.172;2023-11-19T02:55:23;11.40;99.90
20182;DHT22;10250;50.756;6.172;2023-11-19T02:57:24;11.30;99.90
20182;DHT22;10250;50.756;6.172;2023-11-19T02:59:25;11.30;99.90
20182;DHT22;10250;50.756;6.172;2023-11-19T03:01:41;11.40;99.90
20182;DHT22;10250;50.756;6.172;2023-11-19T03:03:44;11.40;99.90
20182;DHT22;10250;50.756;6.172;2023-11-19T03:05:49;11.40;99.90
20182;DHT22;10250;50.756;6.172;2023-11-19T03:07:50;11.40;99.90
20182;DHT22;10250;50.756;6.172;2023-11-19T03:09:50;11.40;99.90
20182;DHT22;10250;50.756;6.172;2023-11-19T03:11:51;11.40;99.90
20182;DHT22;10250;50.756;6.172;2023-11-19T03:13:52;11.40;99.90
20182;DHT22;10250;50.756;6.172;2023-11-19T03:15:52;11.40;99.90
20182;DHT22;10250;50.756;6.172;2023-11-19T03:17:54;11.40;99.90
20182;DHT22;10250;50.756;6.172;2023-11-19T03:19:54;11.40;99.90
20182;DHT22;10250;50.756;6.172;2023-11-19T03:21:55;11.40;99.90
20182;DHT22;10250;50.756;6.172;2023-11-19T03:23:55;11.40;99.90
20182;DHT22;10250;50.756;6.172;2023-11-19T03:25:56;11.50;99.90
20182;DHT22;10250;50.756;6.172;2023-11-19T03:27:57;11.50;99.90
20182;DHT22;10250;50.756;6.172;2023-11-19T03:29:58;11.40;99.90
20182;DHT22;10250;50.756;6.172;2023-11-19T03:31:59;11.50;99.90
20182;DHT22;10250;50.756;6.172;2023-11-19T03:33:59;11.50;99.90
20182;DHT22;10250;50.756;6.172;2023-11-19T03:36:00;11.50;99.90
20182;DHT22;10250;50.756;6.172;2023-11-19T03:38:01;11.50;99.90
20182;DHT22;10250;50.756;6.172;2023-11-19T03:40:01;11.50;99.90
20182;DHT22;10250;50.756;6.172;2023-11-19T03:42:02;11.50;99.90
20182;DHT22;10250;50.756;6.172;2023-11-19T03:44:03;11.50;99.90
20182;DHT22;10250;50.756;6.172;2023-11-19T03:46:04;11.50;99.90
20182;DHT22;10250;50.756;6.172;2023-11-19T03:48:05;11.50;99.90
20182;DHT22;10250;50.756;6.172;2023-11-19T03:50:07;11.50;99.90
20182;DHT22;10250;50.756;6.172;2023-11-19T03:52:10;11.50;99.90
20182;DHT22;10250;50.756;6.172;2023-11-19T03:54:11;11.60;99.90
20182;DHT22;10250;50.756;6.172;2023-11-19T03:56:12;11.50;99.90
20182;DHT22;10250;50.756;6.172;2023-11-19T03:58:13;11.60;99.90
20182;DHT22;10250;50.756;6.172;2023-11-19T04:00:14;11.60;99.90
20182;DHT22;10250;50.756;6.172;2023-11-19T04:02:15;11.60;99.90
20182;DHT22;10250;50.756;6.172;2023-11-19T04:04:16;11.60;99.90
20182;DHT22;10250;50.756;6.172;2023-11-19T04:06:17;11.50;99.90
20182;DHT22;10250;50.756;6.172;2023-11-19T04:08:17;11.60;99.90
20182;DHT22;10250;50.756;6.172;2023-11-19T04:10:18;11.60;99.90
20182;DHT22;10250;50.756;6.172;2023-11-19T04:12:19;11.60;99.90
20182;DHT22;10250;50.756;6.172;2023-11-19T04:14:19;11.60;99.90
20182;DHT22;10250;50.756;6.172;2023-11-19T04:16:26;11.60;99.90
20182;DHT22;10250;50.756;6.172;2023-11-19T04:18:28;11.60;99.90
20182;DHT22;10250;50.756;6.172;2023-11-19T04:20:28;11.60;99.90
20182;DHT22;10250;50.756;6.172;2023-11-19T04:22:29;11.60;99.90
20182;DHT22;10250;50.756;6.172;2023-11-19T04:24:29;11.60;99.90
20182;DHT22;10250;50.756;6.172;2023-11-19T04:26:30;11.60;99.90
20182;DHT22;10250;50.756;6.172;2023-11-19T04:28:31;11.50;99.90
20182;DHT22;10250;50.756;6.172;2023-11-19T04:30:32;11.50;99.90
20182;DHT22;10250;50.756;6.172;2023-11-19T04:32:32;11.50;99.90
20182;DHT22;10250;50.756;6.172;2023-11-19T04:34:33;11.40;99.90
20182;DHT22;10250;50.756;6.172;2023-11-19T04:36:34;11.40;99.90
20182;DHT22;10250;50.756;6.172;2023-11-19T04:38:34;11.40;99.90
20182;DHT22;10250;50.756;6.172;2023-11-19T04:40:35;11.40;99.90
20182;DHT22;10250;50.756;6.172;2023-11-19T04:42:35;11.40;99.90
20182;DHT22;10250;50.756;6.172;2023-11-19T04:44:36;11.30;99.90
20182;DHT22;10250;50.756;6.172;2023-11-19T04:46:37;11.30;99.90
20182;DHT22;10250;50.756;6.172;2023-11-19T04:48:37;11.30;99.90
20182;DHT22;10250;50.756;6.172;2023-11-19T04:50:38;11.30;99.90
20182;DHT22;10250;50.756;6.172;2023-11-19T04:52:39;11.30;99.90
20182;DHT22;10250;50.756;6.172;2023-11-19T04:54:45;11.30;99.90
20182;DHT22;10250;50.756;6.172;2023-11-19T04:56:46;11.30;99.90
20182;DHT22;10250;50.756;6.172;2023-11-19T04:58:50;11.30;99.90
20182;DHT22;10250;50.756;6.172;2023-11-19T05:00:50;11.30;99.90
20182;DHT22;10250;50.756;6.172;2023-11-19T05:02:51;11.30;99.90
20182;DHT22;10250;50.756;6.172;2023-11-19T05:04:52;11.30;99.90
20182;DHT22;10250;50.756;6.172;2023-11-19T05:06:52;11.20;99.90
20182;DHT22;10250;50.756;6.172;2023-11-19T05:08:53;11.20;99.90
20182;DHT22;10250;50.756;6.172;2023-11-19T05:10:54;11.20;99.90
20182;DHT22;10250;50.756;6.172;2023-11-19T05:12:55;11.20;99.90
20182;DHT22;10250;50.756;6.172;2023-11-19T05:14:56;11.20;99.90
20182;DHT22;10250;50.756;6.172;2023-11-19T05:16:57;11.20;99.90
20182;DHT22;10250;50.756;6.172;2023-11-19T05:18:58;11.30;99.90
20182;DHT22;10250;50.756;6.172;2023-11-19T05:20:58;11.20;99.90
20182;DHT22;10250;50.756;6.172;2023-11-19T05:22:59;11.20;99.90
20182;DHT22;10250;50.756;6.172;2023-11-19T05:25:00;11.20;99.90
20182;DHT22;10250;50.756;6.172;2023-11-19T05:27:02;11.20;99.90
20182;DHT22;10250;50.756;6.172;2023-11-19T05:29:03;11.20;99.90
20182;DHT22;10250;50.756;6.172;2023-11-19T05:31:03;11.20;99.90
20182;DHT22;10250;50.756;6.172;2023-11-19T05:33:04;11.20;99.90
20182;DHT22;10250;50.756;6.172;2023-11-19T05:35:05;11.20;99.90
20182;DHT22;10250;50.756;6.172;2023-11-19T05:37:05;11.20;99.90
20182;DHT22;10250;50.756;6.172;2023-11-19T05:39:06;11.20;99.90
20182;DHT22;10250;50.756;6.172;2023-11-19T05:41:07;11.20;99.90
20182;DHT22;10250;50.756;6.172;2023-11-19T05:43:07;11.30;99.90
20182;DHT22;10250;50.756;6.172;2023-11-19T05:45:10;11.30;99.90
20182;DHT22;10250;50.756;6.172;2023-11-19T05:47:12;11.30;99.90
20182;DHT22;10250;50.756;6.172;2023-11-19T05:49:12;11.30;99.90
20182;DHT22;10250;50.756;6.172;2023-11-19T05:51:14;11.30;99.90
20182;DHT22;10250;50.756;6.172;2023-11-19T05:53:17;11.30;99.90
20182;DHT22;10250;50.756;6.172;2023-11-19T05:55:18;11.30;99.90
20182;DHT22;10250;50.756;6.172;2023-11-19T05:57:19;11.30;99.90
20182;DHT22;10250;50.756;6.172;2023-11-19T05:59:24;11.20;99.90
20182;DHT22;10250;50.756;6.172;2023-11-19T06:01:24;11.30;99.90
20182;DHT22;10250;50.756;6.172;2023-11-19T06:03:25;11.30;99.90
20182;DHT22;10250;50.756;6.172;2023-11-19T06:05:25;11.30;99.90
20182;DHT22;10250;50.756;6.172;2023-11-19T06:07:26;11.30;99.90
20182;DHT22;10250;50.756;6.172;2023-11-19T06:09:27;11.40;99.90
20182;DHT22;10250;50.756;6.172;2023-11-19T06:11:28;11.30;99.90
20182;DHT22;10250;50.756;6.172;2023-11-19T06:13:29;11.30;99.90
20182;DHT22;10250;50.756;6.172;2023-11-19T06:15:31;11.30;99.90
20182;DHT22;10250;50.756;6.172;2023-11-19T06:17:33;11.30;99.90
20182;DHT22;10250;50.756;6.172;2023-11-19T06:19:34;11.30;99.90
20182;DHT22;10250;50.756;6.172;2023-11-19T06:21:34;11.20;99.90
20182;DHT22;10250;50.756;6.172;2023-11-19T06:23:36;11.20;99.90
20182;DHT22;10250;50.756;6.172;2023-11-19T06:25:36;11.20;99.90
20182;DHT22;10250;50.756;6.172;2023-11-19T06:27:37;11.20;99.90
20182;DHT22;10250;50.756;6.172;2023-11-19T06:29:38;11.10;99.90
20182;DHT22;10250;50.756;6.172;2023-11-19T06:31:40;11.10;99.90
20182;DHT22;10250;50.756;6.172;2023-11-19T06:33:42;11.10;99.90
20182;DHT22;10250;50.756;6.172;2023-11-19T06:35:43;11.10;99.90
20182;DHT22;10250;50.756;6.172;2023-11-19T06:37:44;11.10;99.90
20182;DHT22;10250;50.756;6.172;2023-11-19T06:39:44;11.10;99.90
20182;DHT22;10250;50.756;6.172;2023-11-19T06:41:46;11.10;99.90
20182;DHT22;10250;50.756;6.172;2023-11-19T06:43:46;11.10;99.90
20182;DHT22;10250;50.756;6.172;2023-11-19T06:45:47;11.10;99.90
20182;DHT22;10250;50.756;6.172;2023-11-19T06:47:48;11.10;99.90
20182;DHT22;10250;50.756;6.172;2023-11-19T06:49:48;11.10;99.90
20182;DHT22;10250;50.756;6.172;2023-11-19T06:51:49;11.10;99.90
20182;DHT22;10250;50.756;6.172;2023-11-19T06:53:50;11.10;99.90
20182;DHT22;10250;50.756;6.172;2023-11-19T06:55:50;11.10;99.90
20182;DHT22;10250;50.756;6.172;2023-11-19T06:57:51;11.10;99.90
20182;DHT22;10250;50.756;6.172;2023-11-19T06:59:51;11.10;99.90
20182;DHT22;10250;50.756;6.172;2023-11-19T07:01:52;11.10;99.90
20182;DHT22;10250;50.756;6.172;2023-11-19T07:03:52;11.10;99.90
20182;DHT22;10250;50.756;6.172;2023-11-19T07:05:53;11.10;99.90
20182;DHT22;10250;50.756;6.172;2023-11-19T07:07:56;11.00;99.90
20182;DHT22;10250;50.756;6.172;2023-11-19T07:09:56;11.00;99.90
20182;DHT22;10250;50.756;6.172;2023-11-19T07:11:57;10.80;99.90
20182;DHT22;10250;50.756;6.172;2023-11-19T07:13:57;10.80;99.90
20182;DHT22;10250;50.756;6.172;2023-11-19T07:15:58;10.80;99.90
20182;DHT22;10250;50.756;6.172;2023-11-19T07:17:59;10.80;99.90
20182;DHT22;10250;50.756;6.172;2023-11-19T07:19:59;10.80;99.90
20182;DHT22;10250;50.756;6.172;2023-11-19T07:22:00;10.80;99.90
20182;DHT22;10250;50.756;6.172;2023-11-19T07:24:02;10.80;99.90
20182;DHT22;10250;50.756;6.172;2023-11-19T07:26:06;10.80;99.90
20182;DHT22;10250;50.756;6.172;2023-11-19T07:28:08;10.80;99.90
20182;DHT22;10250;50.756;6.172;2023-11-19T07:30:10;10.80;99.90
20182;DHT22;10250;50.756;6.172;2023-11-19T07:32:11;10.90;99.90
20182;DHT22;10250;50.756;6.172;2023-11-19T07:34:13;10.90;99.90
20182;DHT22;10250;50.756;6.172;2023-11-19T07:36:14;10.80;99.90
20182;DHT22;10250;50.756;6.172;2023-11-19T07:38:15;10.80;99.90
20182;DHT22;10250;50.756;6.172;2023-11-19T07:40:15;10.90;99.90
20182;DHT22;10250;50.756;6.172;2023-11-19T07:42:16;10.80;99.90
20182;DHT22;10250;50.756;6.172;2023-11-19T07:44:16;10.70;99.90
20182;DHT22;10250;50.756;6.172;2023-11-19T07:46:17;10.70;99.90
20182;DHT22;10250;50.756;6.172;2023-11-19T07:48:20;10.70;99.90
20182;DHT22;10250;50.756;6.172;2023-11-19T07:50:23;10.70;99.90
20182;DHT22;10250;50.756;6.172;2023-11-19T07:52:25;10.60;99.90
20182;DHT22;10250;50.756;6.172;2023-11-19T07:54:26;10.60;99.90
20182;DHT22;10250;50.756;6.172;2023-11-19T07:56:26;10.60;99.90
20182;DHT22;10250;50.756;6.172;2023-11-19T07:58:27;10.60;99.90
20182;DHT22;10250;50.756;6.172;2023-11-19T08:00:28;10.60;99.90
20182;DHT22;10250;50.756;6.172;2023-11-19T08:02:28;10.50;99.90
20182;DHT22;10250;50.756;6.172;2023-11-19T08:04:29;10.50;99.90
20182;DHT22;10250;50.756;6.172;2023-11-19T08:06:30;10.50;99.90
20182;DHT22;10250;50.756;6.172;2023-11-19T08:08:31;10.60;99.90
20182;DHT22;10250;50.756;6.172;2023-11-19T08:10:33;10.60;99.90
20182;DHT22;10250;50.756;6.172;2023-11-19T08:12:33;10.60;99.90
20182;DHT22;10250;50.756;6.172;2023-11-19T08:14:35;10.60;99.90
20182;DHT22;10250;50.756;6.172;2023-11-19T08:16:38;10.50;99.90
20182;DHT22;10250;50.756;6.172;2023-11-19T08:18:44;10.50;99.90
20182;DHT22;10250;50.756;6.172;2023-11-19T08:20:45;10.50;99.90
20182;DHT22;10250;50.756;6.172;2023-11-19T08:22:45;10.60;99.90
20182;DHT22;10250;50.756;6.172;2023-11-19T08:24:46;10.70;99.90
20182;DHT22;10250;50.756;6.172;2023-11-19T08:26:47;10.70;99.90
20182;DHT22;10250;50.756;6.172;2023-11-19T08:28:47;10.70;99.90
20182;DHT22;10250;50.756;6.172;2023-11-19T08:30:48;10.70;99.90
20182;DHT22;10250;50.756;6.172;2023-11-19T08:32:48;10.80;99.90
20182;DHT22;10250;50.756;6.172;2023-11-19T08:34:49;10.80;99.90
20182;DHT22;10250;50.756;6.172;2023-11-19T08:36:53;10.80;99.90
20182;DHT22;10250;50.756;6.172;2023-11-19T08:38:54;10.80;99.90
20182;DHT22;10250;50.756;6.172;2023-11-19T08:40:54;10.80;99.90
20182;DHT22;10250;50.756;6.172;2023-11-19T08:42:59;10.80;99.90
20182;DHT22;10250;50.756;6.172;2023-11-19T08:45:00;10.80;99.90
20182;DHT22;10250;50.756;6.172;2023-11-19T08:47:01;10.90;99.90
20182;DHT22;10250;50.756;6.172;2023-11-19T08:49:01;10.90;99.90
20182;DHT22;10250;50.756;6.172;2023-11-19T08:51:02;10.90;99.90
20182;DHT22;10250;50.756;6.172;2023-11-19T08:53:02;10.90;99.90
20182;DHT22;10250;50.756;6.172;2023-11-19T08:55:07;10.90;99.90
20182;DHT22;10250;50.756;6.172;2023-11-19T08:57:07;11.00;99.90
20182;DHT22;10250;50.756;6.172;2023-11-19T08:59:09;11.00;99.90
20182;DHT22;10250;50.756;6.172;2023-11-19T09:01:09;11.10;99.90
20182;DHT22;10250;50.756;6.172;2023-11-19T09:03:10;11.10;99.90
20182;DHT22;10250;50.756;6.172;2023-11-19T09:05:11;11.10;99.90
20182;DHT22;10250;50.756;6.172;2023-11-19T09:07:12;11.10;99.90
20182;DHT22;10250;50.756;6.172;2023-11-19T09:09:13;11.10;99.90
20182;DHT22;10250;50.756;6.172;2023-11-19T09:11:14;11.10;99.90
20182;DHT22;10250;50.756;6.172;2023-11-19T09:13:15;11.10;99.90
20182;DHT22;10250;50.756;6.172;2023-11-19T09:15:15;11.20;99.90
20182;DHT22;10250;50.756;6.172;2023-11-19T09:17:17;11.20;99.90
20182;DHT22;10250;50.756;6.172;2023-11-19T09:19:18;11.20;99.90
20182;DHT22;10250;50.756;6.172;2023-11-19T09:21:19;11.20;99.90
20182;DHT22;10250;50.756;6.172;2023-11-19T09:23:20;11.20;99.90
20182;DHT22;10250;50.756;6.172;2023-11-19T09:25:20;11.20;99.90
20182;DHT22;10250;50.756;6.172;2023-11-19T09:27:21;11.20;99.90
20182;DHT22;10250;50.756;6.172;2023-11-19T09:29:21;11.20;99.90
20182;DHT22;10250;50.756;6.172;2023-11-19T09:31:22;11.20;99.90
20182;DHT22;10250;50.756;6.172;2023-11-19T09:33:23;11.30;99.90
20182;DHT22;10250;50.756;6.172;2023-11-19T09:35:23;11.30;99.90
20182;DHT22;10250;50.756;6.172;2023-11-19T09:37:24;11.40;99.90
20182;DHT22;10250;50.756;6.172;2023-11-19T09:39:24;11.40;99.90
20182;DHT22;10250;50.756;6.172;2023-11-19T09:41:26;11.40;99.90
20182;DHT22;10250;50.756;6.172;2023-11-19T09:43:28;11.40;99.90
20182;DHT22;10250;50.756;6.172;2023-11-19T09:45:29;11.40;99.90
20182;DHT22;10250;50.756;6.172;2023-11-19T09:47:32;11.50;99.90
20182;DHT22;10250;50.756;6.172;2023-11-19T09:49:33;11.60;99.90
20182;DHT22;10250;50.756;6.172;2023-11-19T09:51:36;11.80;99.90
20182;DHT22;10250;50.756;6.172;2023-11-19T09:53:37;12.00;99.90
20182;DHT22;10250;50.756;6.172;2023-11-19T09:55:38;12.00;99.90
20182;DHT22;10250;50.756;6.172;2023-11-19T09:57:40;12.00;99.90
20182;DHT22;10250;50.756;6.172;2023-11-19T09:59:42;12.10;99.90
20182;DHT22;10250;50.756;6.172;2023-11-19T10:01:43;12.00;99.90
20182;DHT22;10250;50.756;6.172;2023-11-19T10:03:47;12.00;99.90
20182;DHT22;10250;50.756;6.172;2023-11-19T10:05:48;12.00;99.90
20182;DHT22;10250;50.756;6.172;2023-11-19T10:07:48;12.00;99.90
20182;DHT22;10250;50.756;6.172;2023-11-19T10:09:49;12.10;99.90
20182;DHT22;10250;50.756;6.172;2023-11-19T10:11:50;12.10;99.90
20182;DHT22;10250;50.756;6.172;2023-11-19T10:13:53;12.10;99.90
20182;DHT22;10250;50.756;6.172;2023-11-19T10:15:55;12.20;99.90
20182;DHT22;10250;50.756;6.172;2023-11-19T10:17:57;12.10;99.90
20182;DHT22;10250;50.756;6.172;2023-11-19T10:19:58;12.00;99.90
20182;DHT22;10250;50.756;6.172;2023-11-19T10:22:05;12.10;99.90
20182;DHT22;10250;50.756;6.172;2023-11-19T10:24:06;12.20;99.90
20182;DHT22;10250;50.756;6.172;2023-11-19T10:26:07;12.20;99.90
20182;DHT22;10250;50.756;6.172;2023-11-19T10:28:08;12.30;99.90
20182;DHT22;10250;50.756;6.172;2023-11-19T10:30:09;12.30;99.90
20182;DHT22;10250;50.756;6.172;2023-11-19T10:32:12;12.20;99.90
20182;DHT22;10250;50.756;6.172;2023-11-19T10:34:26;12.30;99.90
20182;DHT22;10250;50.756;6.172;2023-11-19T10:36:39;12.30;99.90
20182;DHT22;10250;50.756;6.172;2023-11-19T10:38:54;12.30;99.90
20182;DHT22;10250;50.756;6.172;2023-11-19T10:40:55;12.30;99.90
20182;DHT22;10250;50.756;6.172;2023-11-19T10:43:05;12.30;99.90
20182;DHT22;10250;50.756;6.172;2023-11-19T10:45:28;12.20;99.90
20182;DHT22;10250;50.756;6.172;2023-11-19T10:47:29;12.30;99.90
20182;DHT22;10250;50.756;6.172;2023-11-19T10:49:31;12.20;99.90
20182;DHT22;10250;50.756;6.172;2023-11-19T10:51:31;12.20;99.90
20182;DHT22;10250;50.756;6.172;2023-11-19T10:53:35;12.20;99.90
20182;DHT22;10250;50.756;6.172;2023-11-19T10:55:37;12.00;99.90
20182;DHT22;10250;50.756;6.172;2023-11-19T10:57:40;11.90;99.90
20182;DHT22;10250;50.756;6.172;2023-11-19T10:59:45;11.70;99.90
20182;DHT22;10250;50.756;6.172;2023-11-19T11:01:48;11.60;99.90
20182;DHT22;10250;50.756;6.172;2023-11-19T11:03:51;11.40;99.90
20182;DHT22;10250;50.756;6.172;2023-11-19T11:05:54;11.40;99.90
20182;DHT22;10250;50.756;6.172;2023-11-19T11:07:55;11.30;99.90
20182;DHT22;10250;50.756;6.172;2023-11-19T11:09:57;11.30;99.90
20182;DHT22;10250;50.756;6.172;2023-11-19T11:11:59;11.40;99.90
20182;DHT22;10250;50.756;6.172;2023-11-19T11:14:01;11.40;99.90
20182;DHT22;10250;50.756;6.172;2023-11-19T11:16:04;11.40;99.90
20182;DHT22;10250;50.756;6.172;2023-11-19T11:18:08;11.50;99.90
20182;DHT22;10250;50.756;6.172;2023-11-19T11:20:10;11.50;99.90
20182;DHT22;10250;50.756;6.172;2023-11-19T11:22:11;11.50;99.90
20182;DHT22;10250;50.756;6.172;2023-11-19T11:26:27;11.50;99.90
20182;DHT22;10250;50.756;6.172;2023-11-19T11:28:49;11.60;99.90
20182;DHT22;10250;50.756;6.172;2023-11-19T11:38:14;11.50;99.90
20182;DHT22;10250;50.756;6.172;2023-11-19T11:40:16;11.40;99.90
20182;DHT22;10250;50.756;6.172;2023-11-19T11:45:05;11.40;99.90
20182;DHT22;10250;50.756;6.172;2023-11-19T11:47:09;11.30;99.90
20182;DHT22;10250;50.756;6.172;2023-11-19T11:49:10;11.40;99.90
20182;DHT22;10250;50.756;6.172;2023-11-19T11:51:12;11.40;99.90
20182;DHT22;10250;50.756;6.172;2023-11-19T11:53:13;11.40;99.90
20182;DHT22;10250;50.756;6.172;2023-11-19T11:55:14;11.40;99.90
20182;DHT22;10250;50.756;6.172;2023-11-19T11:57:16;11.40;99.90
20182;DHT22;10250;50.756;6.172;2023-11-19T11:59:18;11.40;99.90
20182;DHT22;10250;50.756;6.172;2023-11-19T12:01:19;11.40;99.90
20182;DHT22;10250;50.756;6.172;2023-11-19T12:03:21;11.40;99.90
20182;DHT22;10250;50.756;6.172;2023-11-19T12:05:23;11.40;99.90
20182;DHT22;10250;50.756;6.172;2023-11-19T12:07:24;11.40;99.90
20182;DHT22;10250;50.756;6.172;2023-11-19T12:09:26;11.50;99.90
20182;DHT22;10250;50.756;6.172;2023-11-19T12:11:26;11.50;99.90
20182;DHT22;10250;50.756;6.172;2023-11-19T12:13:53;11.60;99.90
20182;DHT22;10250;50.756;6.172;2023-11-19T12:17:59;11.60;99.90
20182;DHT22;10250;50.756;6.172;2023-11-19T12:20:05;11.60;99.90
20182;DHT22;10250;50.756;6.172;2023-11-19T12:22:11;11.60;99.90
20182;DHT22;10250;50.756;6.172;2023-11-19T12:24:12;11.60;99.90
20182;DHT22;10250;50.756;6.172;2023-11-19T12:26:33;11.60;99.90
20182;DHT22;10250;50.756;6.172;2023-11-19T12:28:34;11.70;99.90
20182;DHT22;10250;50.756;6.172;2023-11-19T12:30:35;11.70;99.90
20182;DHT22;10250;50.756;6.172;2023-11-19T12:32:43;11.80;99.90
20182;DHT22;10250;50.756;6.172;2023-11-19T12:34:45;11.80;99.90
20182;DHT22;10250;50.756;6.172;2023-11-19T12:36:45;11.70;99.90
20182;DHT22;10250;50.756;6.172;2023-11-19T12:38:46;11.70;99.90
20182;DHT22;10250;50.756;6.172;2023-11-19T12:40:47;11.80;99.90
20182;DHT22;10250;50.756;6.172;2023-11-19T12:42:48;11.80;99.90
20182;DHT22;10250;50.756;6.172;2023-11-19T12:44:55;11.80;99.90
20182;DHT22;10250;50.756;6.172;2023-11-19T12:47:06;11.90;99.90
20182;DHT22;10250;50.756;6.172;2023-11-19T12:49:07;11.90;99.90
20182;DHT22;10250;50.756;6.172;2023-11-19T12:51:07;11.80;99.90
20182;DHT22;10250;50.756;6.172;2023-11-19T12:53:08;11.80;99.90
20182;DHT22;10250;50.756;6.172;2023-11-19T12:55:25;11.90;99.90
20182;DHT22;10250;50.756;6.172;2023-11-19T12:57:40;11.90;99.90
20182;DHT22;10250;50.756;6.172;2023-11-19T12:59:41;11.90;99.90
20182;DHT22;10250;50.756;6.172;2023-11-19T13:01:41;11.90;99.90
20182;DHT22;10250;50.756;6.172;2023-11-19T13:03:53;11.90;99.90